Time;durP1;ratioP1;P1;durP2;ratioP2;P2;SDS_P1;SDS_P2;PMS_P1;PMS_P2;Temp;Humidity;BMP_temperature;BMP_pressure;BME280_temperature;BME280_humidity;BME280_pressure;Samples;Min_cycle;Max_cycle;Signal;HPM_P1;HPM_P2
2021/12/08 00:01:26;;;;;;;4.32;2.25;;;;;;;0.59;69.45;95301.47;5054015;28;20076;-77
2021/12/08 00:03:54;;;;;;;6.30;2.95;;;;;;;0.61;69.27;95291.88;5053633;28;20055;-77
2021/12/08 00:06:22;;;;;;;3.38;2.28;;;;;;;0.60;68.84;95288.50;5053267;28;20055;-77
2021/12/08 00:09:04;;;;;;;3.30;2.20;;;;;;;0.59;69.03;95283.53;5053472;28;20552;-76
2021/12/08 00:14:17;;;;;;;4.05;2.15;;;;;;;0.63;68.85;95282.25;5053123;28;20057;-76
2021/12/08 00:16:45;;;;;;;2.78;1.77;;;;;;;0.66;68.79;95276.03;5052892;28;20059;-76
2021/12/08 00:19:13;;;;;;;4.15;2.75;;;;;;;0.65;68.49;95275.22;5053234;28;20434;-76
2021/12/08 00:21:40;;;;;;;4.72;2.70;;;;;;;0.65;68.56;95259.03;5053685;28;20053;-76
2021/12/08 00:24:09;;;;;;;3.17;2.00;;;;;;;0.66;68.25;95258.09;5053293;28;20506;-76
2021/12/08 00:26:37;;;;;;;3.75;2.20;;;;;;;0.67;68.38;95250.22;5053121;28;20052;-77
2021/12/08 00:29:05;;;;;;;4.38;2.15;;;;;;;0.67;67.94;95252.78;5053136;28;20056;-76
2021/12/08 00:31:33;;;;;;;3.95;1.88;;;;;;;0.67;67.79;95246.84;5052937;28;20045;-76
2021/12/08 00:34:01;;;;;;;4.75;1.73;;;;;;;0.66;67.67;95260.66;5052631;28;20072;-76
2021/12/08 00:36:40;;;;;;;2.55;2.35;;;;;;;0.69;68.13;95258.56;5052558;28;20053;-77
2021/12/08 00:39:10;;;;;;;5.22;2.60;;;;;;;0.74;68.12;95247.81;5053287;28;20052;-77
2021/12/08 00:41:37;;;;;;;5.57;2.05;;;;;;;0.72;67.94;95250.56;5053515;28;20049;-76
2021/12/08 00:44:05;;;;;;;2.38;2.10;;;;;;;0.72;68.60;95247.19;5053149;28;20502;-76
2021/12/08 00:46:33;;;;;;;4.22;2.47;;;;;;;0.71;68.10;95237.88;5052769;28;20049;-77
2021/12/08 00:49:01;;;;;;;4.68;2.40;;;;;;;0.71;69.04;95248.16;5053359;28;20048;-76
2021/12/08 00:51:28;;;;;;;3.75;1.80;;;;;;;0.72;68.07;95232.59;5052076;28;20522;-77
2021/12/08 00:53:56;;;;;;;5.45;1.95;;;;;;;0.72;67.72;95240.31;5052835;28;20045;-76
2021/12/08 00:56:25;;;;;;;2.22;1.50;;;;;;;0.71;67.29;95238.69;5052656;28;20053;-77
2021/12/08 00:58:52;;;;;;;3.17;1.90;;;;;;;0.68;67.30;95244.13;5053383;28;20525;-76
2021/12/08 01:01:28;;;;;;;2.47;1.98;;;;;;;0.66;67.09;95243.47;5053384;28;20044;-75
2021/12/08 01:03:56;;;;;;;3.17;1.75;;;;;;;0.63;67.01;95264.31;5053593;28;20076;-77
2021/12/08 01:06:24;;;;;;;4.13;2.38;;;;;;;0.62;67.30;95262.69;5053732;28;20045;-76
2021/12/08 01:08:51;;;;;;;2.42;1.70;;;;;;;0.66;67.24;95265.78;5053109;28;20449;-76
2021/12/08 01:11:20;;;;;;;3.42;2.00;;;;;;;0.69;67.14;95276.53;5052955;28;20144;-76
2021/12/08 01:13:49;;;;;;;2.45;1.52;;;;;;;0.73;67.11;95288.09;5052700;28;20136;-77
2021/12/08 01:16:18;;;;;;;5.00;2.03;;;;;;;0.75;67.04;95282.81;5052473;28;20045;-76
2021/12/08 01:18:46;;;;;;;1.60;1.40;;;;;;;0.81;67.19;95279.66;5052518;28;20473;-77
2021/12/08 01:21:14;;;;;;;6.10;2.67;;;;;;;0.82;66.90;95283.81;5052688;28;20053;-77
2021/12/08 01:23:42;;;;;;;2.15;1.75;;;;;;;0.85;67.18;95269.84;5052137;28;20498;-77
2021/12/08 01:26:11;;;;;;;5.57;1.83;;;;;;;0.87;67.27;95278.22;5052155;28;20049;-77
2021/12/08 01:28:39;;;;;;;3.78;1.70;;;;;;;0.91;67.35;95284.66;5052239;28;20094;-76
2021/12/08 01:31:08;;;;;;;3.45;1.83;;;;;;;0.93;67.13;95277.59;5052205;28;20049;-76
2021/12/08 01:33:36;;;;;;;5.57;2.50;;;;;;;0.95;67.11;95275.69;5052622;28;20044;-76
2021/12/08 01:36:07;;;;;;;5.07;2.40;;;;;;;0.95;66.92;95270.53;5052221;28;20122;-76
2021/12/08 01:38:36;;;;;;;4.05;1.83;;;;;;;0.92;66.50;95270.84;5052475;28;20045;-76
2021/12/08 01:41:05;;;;;;;7.47;1.90;;;;;;;0.90;66.70;95263.31;5052498;28;20057;-76
2021/12/08 01:43:42;;;;;;;2.78;1.95;;;;;;;0.90;66.92;95262.50;5052763;28;20052;-76
2021/12/08 01:46:13;;;;;;;3.72;2.22;;;;;;;0.90;66.48;95257.38;5052003;28;20049;-77
2021/12/08 01:48:45;;;;;;;4.78;2.20;;;;;;;0.90;66.72;95253.03;5051911;28;20525;-76
2021/12/08 01:51:16;;;;;;;6.47;2.17;;;;;;;0.90;66.58;95244.53;5052332;28;20441;-76
2021/12/08 01:53:48;;;;;;;4.78;3.22;;;;;;;0.91;66.84;95239.22;5052081;28;20041;-76
2021/12/08 01:56:15;;;;;;;4.72;2.97;;;;;;;0.92;66.63;95225.44;5052207;28;20049;-76
2021/12/08 01:58:43;;;;;;;4.30;3.20;;;;;;;0.93;66.82;95226.25;5052342;28;20044;-76
2021/12/08 02:01:16;;;;;;;3.58;2.25;;;;;;;0.92;67.40;95222.06;5051095;28;20426;-77
2021/12/08 02:03:45;;;;;;;3.13;2.03;;;;;;;0.96;67.71;95231.06;5050024;28;20099;-76
2021/12/08 02:06:17;;;;;;;3.90;2.67;;;;;;;1.05;69.58;95245.56;5051124;28;20056;-77
2021/12/08 02:08:45;;;;;;;2.67;2.00;;;;;;;1.16;70.20;95250.41;5068186;28;20060;-76
2021/12/08 02:11:13;;;;;;;4.10;2.22;;;;;;;1.24;70.38;95263.25;5072870;28;20049;-76
2021/12/08 02:13:41;;;;;;;2.33;2.13;;;;;;;1.31;69.84;95270.31;5071096;28;20049;-75
2021/12/08 02:16:12;;;;;;;4.07;2.10;;;;;;;1.38;70.41;95267.00;5061681;28;20041;-76
2021/12/08 02:18:41;;;;;;;1.80;1.67;;;;;;;1.47;69.92;95277.28;5057487;28;20384;-76
2021/12/08 02:21:24;;;;;;;3.92;2.35;;;;;;;1.55;71.35;95264.44;5056506;28;20104;-76
2021/12/08 02:23:52;;;;;;;3.45;2.40;;;;;;;1.54;69.22;95261.06;5056678;28;20049;-76
2021/12/08 02:26:20;;;;;;;2.65;2.20;;;;;;;1.47;69.32;95251.59;5053917;28;20069;-77
2021/12/08 02:28:48;;;;;;;4.13;2.97;;;;;;;1.38;69.03;95250.78;5054147;28;20075;-77
2021/12/08 02:31:21;;;;;;;3.10;2.53;;;;;;;1.29;69.23;95249.94;5053734;28;20411;-77
2021/12/08 02:47:54;;;;;;;3.65;2.63;;;;;;;1.00;71.34;95247.75;5052759;28;20063;-76
2021/12/08 02:50:26;;;;;;;7.10;3.47;;;;;;;0.97;71.51;95243.75;5052813;28;20052;-77
2021/12/08 02:52:57;;;;;;;3.80;3.10;;;;;;;0.93;72.99;95233.94;5054658;28;20395;-77
2021/12/08 02:55:24;;;;;;;4.53;2.97;;;;;;;0.93;72.16;95231.38;5055363;28;20060;-76
2021/12/08 02:57:52;;;;;;;7.78;2.83;;;;;;;0.95;72.65;95224.34;5054389;28;20053;-76
2021/12/08 03:00:24;;;;;;;5.40;3.00;;;;;;;0.92;72.34;95224.63;5055037;28;20057;-76
2021/12/08 03:02:52;;;;;;;2.57;2.20;;;;;;;0.91;72.39;95220.47;5054720;28;20509;-76
2021/12/08 03:05:20;;;;;;;5.35;3.10;;;;;;;0.87;72.82;95222.53;5055216;28;20052;-77
2021/12/08 03:07:48;;;;;;;3.30;2.65;;;;;;;0.84;73.57;95227.97;5056567;28;20045;-76
2021/12/08 03:10:21;;;;;;;4.72;2.78;;;;;;;0.84;73.30;95222.06;5058544;28;20055;-77
2021/12/08 03:12:49;;;;;;;3.92;2.95;;;;;;;0.80;73.13;95224.91;5056156;28;20055;-76
2021/12/08 03:15:18;;;;;;;4.13;3.25;;;;;;;0.76;73.56;95241.56;5056578;28;20071;-77
2021/12/08 03:17:45;;;;;;;5.35;3.55;;;;;;;0.76;73.65;95246.72;5054975;28;20052;-76
2021/12/08 03:20:16;;;;;;;7.40;4.13;;;;;;;0.72;73.91;95230.03;5055450;28;20067;-77
2021/12/08 03:22:47;;;;;;;4.00;3.20;;;;;;;0.71;73.71;95232.75;5055171;28;20071;-76
2021/12/08 03:25:18;;;;;;;3.63;3.28;;;;;;;0.71;74.23;95245.59;5054195;28;20053;-77
2021/12/08 03:27:52;;;;;;;4.15;3.30;;;;;;;0.77;74.72;95245.78;5053687;28;20533;-77
2021/12/08 03:30:26;;;;;;;3.95;2.90;;;;;;;0.84;74.34;95252.84;5054646;28;20055;-76
2021/12/08 03:32:56;;;;;;;4.38;2.88;;;;;;;0.86;74.03;95245.81;5054357;28;20044;-77
2021/12/08 03:35:25;;;;;;;4.57;2.90;;;;;;;0.88;73.72;95242.13;5053946;28;20049;-76
2021/12/08 03:37:53;;;;;;;5.30;3.10;;;;;;;0.89;74.36;95235.22;5053687;28;20045;-76
2021/12/08 03:40:25;;;;;;;3.55;2.65;;;;;;;0.91;74.37;95228.97;5054147;28;20080;-76
2021/12/08 03:42:56;;;;;;;5.18;3.42;;;;;;;0.90;73.64;95237.63;5054191;28;20052;-76
2021/12/08 03:45:26;;;;;;;4.40;2.85;;;;;;;0.80;73.76;95242.88;5054467;28;20057;-76
2021/12/08 03:48:01;;;;;;;7.88;2.78;;;;;;;0.73;74.83;95251.38;5054112;28;20140;-76
2021/12/08 03:50:30;;;;;;;3.97;2.67;;;;;;;0.67;74.45;95252.78;5053975;28;20048;-77
2021/12/08 03:52:58;;;;;;;5.28;3.38;;;;;;;0.63;74.60;95243.78;5053839;28;20049;-76
2021/12/08 03:55:26;;;;;;;6.18;2.90;;;;;;;0.61;74.71;95243.13;5053981;28;20049;-77
2021/12/08 03:57:55;;;;;;;3.45;2.92;;;;;;;0.67;75.25;95246.84;5053608;28;20052;-76
2021/12/08 04:00:24;;;;;;;4.47;2.92;;;;;;;0.69;75.30;95235.47;5053260;28;20509;-76
2021/12/08 04:02:52;;;;;;;4.00;3.25;;;;;;;0.71;75.26;95237.88;5054035;28;20499;-76
2021/12/08 04:05:31;;;;;;;5.22;2.80;;;;;;;0.73;75.79;95226.50;5053272;28;20057;-76
2021/12/08 04:08:03;;;;;;;4.53;2.80;;;;;;;0.72;75.01;95217.19;5053272;28;20052;-77
2021/12/08 04:10:31;;;;;;;5.55;3.65;;;;;;;0.68;75.44;95233.88;5053503;28;20057;-76
2021/12/08 04:13:01;;;;;;;6.80;3.55;;;;;;;0.65;75.47;95233.34;5053587;28;20053;-77
2021/12/08 04:15:28;;;;;;;4.28;3.15;;;;;;;0.59;75.36;95225.31;5082734;22;20059;-76
2021/12/08 04:17:56;;;;;;;6.57;3.97;;;;;;;0.58;75.75;95225.47;5075298;28;20049;-76
2021/12/08 04:20:27;;;;;;;7.70;4.13;;;;;;;0.59;76.17;95227.06;5073807;28;20056;-77
2021/12/08 04:22:57;;;;;;;6.28;4.45;;;;;;;0.59;75.97;95224.50;5075397;28;20056;-77
2021/12/08 04:25:30;;;;;;;4.05;3.47;;;;;;;0.58;76.23;95225.47;5096849;28;20052;-76
2021/12/08 04:27:59;;;;;;;;;;;;;;;0.60;76.69;95226.91;5088682;28;20052;-77
2021/12/08 04:30:32;;;;;;;5.55;3.65;;;;;;;0.56;76.22;95235.09;5073722;28;19921;-77
2021/12/08 04:33:05;;;;;;;5.00;4.18;;;;;;;0.54;76.03;95229.31;5073400;28;20060;-77
2021/12/08 04:35:35;;;;;;;6.70;4.15;;;;;;;0.54;76.43;95222.41;5073429;28;20055;-77
2021/12/08 04:38:07;;;;;;;4.93;3.70;;;;;;;0.53;77.09;95220.00;5072244;28;20051;-77
2021/12/08 04:40:48;;;;;;;5.10;3.78;;;;;;;0.54;77.61;95219.03;5073469;28;20051;-77
2021/12/08 04:43:22;;;;;;;4.57;3.97;;;;;;;0.56;77.30;95219.69;5073042;28;20055;-77
2021/12/08 04:46:02;;;;;;;6.95;4.05;;;;;;;0.60;77.92;95216.66;5072739;28;20056;-77
2021/12/08 04:48:50;;;;;;;5.20;4.05;;;;;;;0.65;77.86;95218.75;5072996;28;20430;-77
2021/12/08 04:51:45;;;;;;;5.10;3.90;;;;;;;0.71;77.95;95213.00;5072944;28;20052;-77
2021/12/08 05:03:02;;;;;;;8.27;5.32;;;;;;;0.81;78.47;95211.13;5073323;28;20052;-77
2021/12/08 05:05:49;;;;;;;7.03;5.03;;;;;;;0.84;78.09;95204.88;5072737;28;20135;-77
2021/12/08 05:08:20;;;;;;;7.32;6.10;;;;;;;0.82;78.35;95199.09;5072726;28;20056;-77
2021/12/08 05:10:50;;;;;;;6.13;4.90;;;;;;;0.79;78.05;95195.09;5072965;28;20059;-77
2021/12/08 05:13:20;;;;;;;7.10;4.93;;;;;;;0.77;78.15;95196.19;5072729;28;20052;-77
2021/12/08 05:15:52;;;;;;;7.43;5.32;;;;;;;0.75;78.41;95198.91;5072184;28;20056;-77
2021/12/08 05:18:25;;;;;;;8.13;5.63;;;;;;;0.76;78.73;95200.50;5072861;28;20062;-77
2021/12/08 05:21:02;;;;;;;7.78;4.13;;;;;;;0.78;78.64;95197.78;5073036;28;20048;-77
2021/12/08 05:23:33;;;;;;;6.03;4.85;;;;;;;0.78;78.61;95203.72;5072807;28;20056;-77
2021/12/08 05:26:05;;;;;;;6.63;4.35;;;;;;;0.84;78.63;95193.81;5072501;28;20064;-77
2021/12/08 05:28:33;;;;;;;8.07;5.18;;;;;;;0.84;78.46;95204.09;5072757;28;20079;-77
2021/12/08 05:31:05;;;;;;;6.22;4.97;;;;;;;0.85;78.63;95210.81;5072555;28;20433;-77
2021/12/08 05:33:34;;;;;;;7.53;5.28;;;;;;;0.86;78.74;95215.00;5072352;28;20055;-76
2021/12/08 05:36:03;;;;;;;8.32;5.65;;;;;;;0.86;78.74;95209.88;5072284;28;20064;-77
2021/12/08 05:38:31;;;;;;;8.13;5.50;;;;;;;0.86;79.00;95207.31;5072276;28;20044;-77
2021/12/08 05:41:02;;;;;;;9.38;6.07;;;;;;;0.86;78.99;95202.16;5072723;28;20055;-77
2021/12/08 05:43:30;;;;;;;9.13;6.88;;;;;;;0.89;79.06;95217.25;5072473;28;20417;-77
2021/12/08 05:45:59;;;;;;;8.68;6.50;;;;;;;0.92;78.84;95215.19;5072123;28;20045;-77
2021/12/08 05:48:30;;;;;;;9.57;6.70;;;;;;;0.93;78.50;95211.63;5072141;28;20143;-76
2021/12/08 05:51:04;;;;;;;12.23;8.10;;;;;;;0.93;78.90;95208.28;5075306;28;20040;-77
2021/12/08 05:53:33;;;;;;;8.50;7.07;;;;;;;0.90;78.87;95201.69;5076396;28;20063;-77
2021/12/08 05:56:02;;;;;;;9.77;6.70;;;;;;;0.88;78.88;95197.69;5075624;28;20518;-77
2021/12/08 05:58:30;;;;;;;9.55;6.82;;;;;;;0.90;78.99;95190.63;5076781;28;20067;-77
2021/12/08 06:01:05;;;;;;;8.57;6.47;;;;;;;0.91;79.05;95187.88;5076016;28;20048;-77
2021/12/08 06:03:34;;;;;;;13.23;8.30;;;;;;;0.93;79.19;95205.72;5075814;28;20048;-77
2021/12/08 06:06:05;;;;;;;8.43;6.45;;;;;;;0.96;79.02;95218.22;5087884;28;20062;-77
2021/12/08 06:08:33;;;;;;;9.88;7.82;;;;;;;0.96;79.05;95223.34;5090153;28;20044;-77
2021/12/08 06:11:02;;;;;;;8.90;7.30;;;;;;;0.95;79.29;95214.84;5083151;28;20116;-76
2021/12/08 06:13:30;;;;;;;9.48;8.02;;;;;;;0.97;79.23;95214.72;5063900;28;20055;-76
2021/12/08 06:15:59;;;;;;;11.35;7.80;;;;;;;0.98;79.09;95224.00;5062933;28;20045;-76
2021/12/08 06:18:28;;;;;;;9.27;7.03;;;;;;;0.94;78.77;95218.41;5055637;28;20106;-76
2021/12/08 06:20:59;;;;;;;10.30;7.22;;;;;;;0.92;78.53;95215.19;5072039;28;20053;-76
2021/12/08 06:23:28;;;;;;;12.18;8.60;;;;;;;0.88;78.94;95218.22;5074998;28;20535;-76
2021/12/08 06:25:55;;;;;;;10.02;8.07;;;;;;;0.89;79.59;95219.81;5076932;28;20052;-74
2021/12/08 06:28:23;;;;;;;9.65;7.95;;;;;;;0.90;79.45;95211.16;5067975;28;20048;-77
2021/12/08 06:30:50;;;;;;;13.02;9.15;;;;;;;0.89;79.28;95202.63;5054873;28;20091;-75
2021/12/08 06:33:20;;;;;;;11.45;8.32;;;;;;;0.90;79.00;95203.47;5055073;28;20053;-76
2021/12/08 06:35:52;;;;;;;9.55;7.55;;;;;;;0.92;79.31;95201.53;5054747;28;20056;-75
2021/12/08 06:38:22;;;;;;;9.45;7.60;;;;;;;0.91;79.23;95193.03;5054775;28;20132;-75
2021/12/08 06:41:00;;;;;;;11.15;8.80;;;;;;;0.92;79.08;95191.25;5056210;28;20057;-75
2021/12/08 06:43:34;;;;;;;12.02;8.32;;;;;;;0.91;78.95;95189.66;5050445;28;20064;-76
2021/12/08 06:46:04;;;;;;;12.27;8.32;;;;;;;0.92;78.96;95196.38;5066860;28;20040;-75
2021/12/08 06:48:37;;;;;;;12.45;8.52;;;;;;;0.91;79.73;95197.34;5074667;28;20429;-75
2021/12/08 06:51:08;;;;;;;12.98;9.77;;;;;;;0.94;79.76;95215.00;5074590;28;20060;-75
2021/12/08 06:53:36;;;;;;;13.88;9.80;;;;;;;0.97;79.61;95224.97;5074329;28;20048;-75
2021/12/08 06:56:10;;;;;;;10.95;8.57;;;;;;;0.98;80.17;95222.28;5056795;28;20146;-75
2021/12/08 06:58:41;;;;;;;14.80;10.50;;;;;;;1.00;79.71;95212.63;5055062;28;20049;-75
2021/12/08 07:01:19;;;;;;;11.38;9.15;;;;;;;1.00;79.15;95206.69;5053666;28;20052;-75
2021/12/08 07:04:05;;;;;;;12.43;8.93;;;;;;;0.96;79.03;95202.81;5054370;28;20421;-75
2021/12/08 07:06:45;;;;;;;13.90;9.73;;;;;;;0.92;79.33;95194.66;5071755;28;20124;-74
2021/12/08 07:09:17;;;;;;;12.02;9.75;;;;;;;0.93;79.03;95190.31;5078443;28;20160;-74
2021/12/08 07:11:47;;;;;;;16.15;11.55;;;;;;;0.94;79.16;95197.03;5064060;28;20056;-75
2021/12/08 07:14:15;;;;;;;13.32;9.88;;;;;;;0.93;79.18;95193.66;5054862;28;20045;-76
2021/12/08 07:16:46;;;;;;;13.68;9.68;;;;;;;0.93;79.08;95200.56;5053950;28;20522;-75
2021/12/08 07:19:23;;;;;;;14.07;10.48;;;;;;;0.92;79.34;95214.34;5081855;28;20033;-72
2021/12/08 07:21:54;;;;;;;12.80;10.68;;;;;;;0.93;79.18;95218.53;5088932;28;20049;-73
2021/12/08 07:24:26;;;;;;;13.18;9.77;;;;;;;0.93;79.31;95215.97;5073875;28;20541;-73
2021/12/08 07:26:59;;;;;;;15.37;9.73;;;;;;;0.92;79.41;95207.47;5073702;28;20056;-73
2021/12/08 07:29:36;;;;;;;14.30;10.88;;;;;;;0.93;79.81;95226.25;5073635;28;20056;-73
2021/12/08 07:32:08;;;;;;;16.23;11.98;;;;;;;0.91;79.82;95223.03;5073953;28;20049;-73
2021/12/08 07:34:36;;;;;;;12.10;10.25;;;;;;;0.93;79.61;95241.66;5073820;28;20048;-74
2021/12/08 07:37:11;;;;;;;12.07;10.52;;;;;;;0.91;79.50;95243.56;5073334;28;20052;-73
2021/12/08 07:39:44;;;;;;;15.35;11.45;;;;;;;0.91;79.56;95238.44;5073907;28;20053;-73
2021/12/08 07:42:19;;;;;;;13.38;10.55;;;;;;;0.91;79.56;95233.31;5071683;28;20055;-75
2021/12/08 07:44:50;;;;;;;14.63;10.63;;;;;;;0.90;79.70;95247.91;5073608;28;20071;-73
2021/12/08 07:47:20;;;;;;;15.18;10.95;;;;;;;0.91;79.14;95234.09;5073558;28;20521;-72
2021/12/08 07:49:54;;;;;;;17.30;11.60;;;;;;;0.90;79.32;95241.97;5074671;28;20052;-72
2021/12/08 07:52:25;;;;;;;15.18;11.50;;;;;;;0.90;79.25;95231.72;5074694;28;20147;-72
2021/12/08 07:54:53;;;;;;;14.43;11.85;;;;;;;0.90;79.74;95221.44;5074837;28;20060;-73
2021/12/08 07:57:25;;;;;;;14.95;11.85;;;;;;;0.91;79.69;95220.47;5074520;28;20529;-73
2021/12/08 08:00:00;;;;;;;16.73;11.45;;;;;;;0.91;79.83;95223.81;5074364;28;20118;-73
2021/12/08 08:02:29;;;;;;;16.58;12.23;;;;;;;0.92;79.84;95227.19;5073568;28;20501;-73
2021/12/08 08:05:00;;;;;;;16.27;11.10;;;;;;;0.94;79.82;95222.72;5072003;28;20506;-73
2021/12/08 08:07:28;;;;;;;14.23;10.85;;;;;;;0.96;80.17;95225.94;5070645;28;20052;-74
2021/12/08 08:10:00;;;;;;;18.90;12.30;;;;;;;0.99;80.13;95223.84;5071739;28;20045;-72
2021/12/08 08:12:34;;;;;;;14.13;11.60;;;;;;;1.03;79.95;95219.22;5073740;28;20045;-73
2021/12/08 08:15:15;;;;;;;16.25;11.43;;;;;;;1.05;80.09;95225.00;5072062;28;20473;-73
2021/12/08 08:17:45;;;;;;;14.02;10.88;;;;;;;1.06;79.67;95226.59;5071802;28;20514;-73
2021/12/08 08:20:19;;;;;;;14.10;10.45;;;;;;;1.05;79.70;95227.59;5059210;28;20060;-73
2021/12/08 08:22:47;;;;;;;15.32;12.23;;;;;;;1.04;79.60;95236.22;5052853;28;20526;-73
2021/12/08 08:25:19;;;;;;;18.02;12.80;;;;;;;1.06;80.24;95231.75;5052863;28;20052;-73
2021/12/08 08:27:48;;;;;;;16.20;13.07;;;;;;;1.07;80.06;95233.34;5052496;28;20049;-73
2021/12/08 08:30:19;;;;;;;14.50;11.93;;;;;;;1.08;79.86;95227.25;5052502;28;20057;-72
2021/12/08 08:32:49;;;;;;;18.00;12.75;;;;;;;1.06;79.62;95221.47;5052982;28;20057;-73
2021/12/08 08:35:20;;;;;;;18.33;12.93;;;;;;;1.06;79.70;95220.66;5052474;28;20049;-72
2021/12/08 08:37:50;;;;;;;19.48;13.38;;;;;;;1.07;79.80;95217.13;5052110;28;20079;-74
2021/12/08 08:40:22;;;;;;;17.40;12.30;;;;;;;1.08;80.24;95218.75;5052817;28;20049;-73
2021/12/08 08:42:54;;;;;;;17.20;11.68;;;;;;;1.07;79.96;95222.28;5051798;28;20055;-72
2021/12/08 08:45:29;;;;;;;18.13;12.85;;;;;;;1.04;80.07;95215.69;5050408;28;20501;-73
2021/12/08 08:48:01;;;;;;;16.90;12.73;;;;;;;1.03;80.24;95216.66;5050031;28;20495;-73
2021/12/08 08:50:32;;;;;;;16.27;11.97;;;;;;;1.05;80.36;95222.44;5050539;28;20418;-73
2021/12/08 08:53:01;;;;;;;16.85;12.70;;;;;;;1.02;80.32;95209.91;5051469;28;20053;-71
2021/12/08 08:55:44;;;;;;;15.65;12.88;;;;;;;1.00;80.35;95198.97;5065595;28;20045;-71
2021/12/08 08:58:14;;;;;;;15.98;12.77;;;;;;;0.97;80.17;95197.53;5072512;28;20049;-71
2021/12/08 09:00:45;;;;;;;18.63;12.32;;;;;;;0.98;80.24;95188.06;5073193;28;20079;-70
2021/12/08 09:03:17;;;;;;;19.55;13.73;;;;;;;0.99;80.49;95181.97;5072858;28;20052;-73
2021/12/08 09:05:51;;;;;;;16.65;13.45;;;;;;;1.01;80.56;95180.06;5071976;28;20047;-73
2021/12/08 09:08:22;;;;;;;18.08;13.23;;;;;;;1.02;80.34;95176.53;5072199;28;20059;-74
2021/12/08 09:10:55;;;;;;;17.40;13.63;;;;;;;0.99;80.14;95164.00;5072231;28;20402;-74
2021/12/08 09:13:29;;;;;;;15.77;12.10;;;;;;;0.93;80.09;95155.16;5072221;28;20335;-73
2021/12/08 09:16:00;;;;;;;15.88;12.07;;;;;;;0.91;80.12;95161.41;5071735;28;20040;-73
2021/12/08 09:18:39;;;;;;;16.38;12.40;;;;;;;0.89;80.81;95160.78;5072144;28;20048;-72
2021/12/08 09:21:14;;;;;;;16.50;12.55;;;;;;;0.90;80.38;95165.75;5052061;28;20067;-73
2021/12/08 09:23:48;;;;;;;15.45;11.45;;;;;;;0.92;80.32;95168.97;5051811;28;20052;-73
2021/12/08 09:26:20;;;;;;;15.45;11.80;;;;;;;0.93;80.13;95164.63;5055566;28;20045;-73
2021/12/08 09:28:54;;;;;;;14.02;11.43;;;;;;;0.90;80.58;95172.66;5055853;28;20057;-72
2021/12/08 09:31:26;;;;;;;15.75;11.73;;;;;;;0.88;79.96;95166.88;5056401;28;20057;-72
2021/12/08 09:33:59;;;;;;;13.13;10.87;;;;;;;0.84;80.19;95153.53;5055857;28;20072;-73
2021/12/08 09:36:32;;;;;;;14.98;11.40;;;;;;;0.84;80.24;95160.44;5056400;28;20056;-73
2021/12/08 09:39:08;;;;;;;13.60;10.90;;;;;;;0.83;80.09;95154.47;5056661;28;20056;-72
2021/12/08 09:41:41;;;;;;;14.80;12.00;;;;;;;0.85;80.26;95169.75;5056052;28;20057;-73
2021/12/08 09:44:14;;;;;;;19.15;12.40;;;;;;;0.88;80.41;95180.50;5055912;28;20053;-72
2021/12/08 09:46:44;;;;;;;14.90;11.45;;;;;;;0.94;80.65;95191.91;5055584;28;20442;-73
2021/12/08 09:49:15;;;;;;;13.35;11.18;;;;;;;1.01;80.78;95198.84;5055764;28;20491;-73
2021/12/08 09:51:44;;;;;;;16.42;11.85;;;;;;;1.10;80.69;95202.22;5056061;28;20053;-73
2021/12/08 09:54:11;;;;;;;15.68;11.38;;;;;;;1.18;80.58;95191.97;5056519;28;20482;-73
2021/12/08 09:56:40;;;;;;;16.38;11.30;;;;;;;1.25;80.51;95189.56;5074847;28;20052;-73
2021/12/08 09:59:10;;;;;;;14.13;10.40;;;;;;;1.29;80.17;95190.03;5094002;28;20055;-73
2021/12/08 10:01:41;;;;;;;15.45;11.43;;;;;;;1.31;80.53;95191.50;5098823;28;20048;-73
2021/12/08 10:04:10;;;;;;;13.98;11.77;;;;;;;1.34;80.54;95188.63;5099187;28;20044;-72
2021/12/08 10:06:40;;;;;;;17.65;11.50;;;;;;;1.35;80.66;95176.56;5099168;28;20036;-74
2021/12/08 10:09:09;;;;;;;15.52;10.52;;;;;;;1.36;80.56;95167.91;5098924;28;20072;-73
2021/12/08 10:11:36;;;;;;;14.93;11.10;;;;;;;1.37;80.55;95152.31;5099083;28;20047;-72
2021/12/08 10:14:05;;;;;;;16.10;10.70;;;;;;;1.34;80.40;95157.00;5096540;28;20060;-73
2021/12/08 10:16:34;;;;;;;14.07;10.70;;;;;;;1.33;80.50;95150.22;5089705;28;20044;-73
2021/12/08 10:19:04;;;;;;;13.85;11.30;;;;;;;1.30;80.64;95146.22;5089162;28;20049;-73
2021/12/08 10:21:34;;;;;;;14.60;10.77;;;;;;;1.28;80.77;95139.63;5079256;22;20060;-74
2021/12/08 10:24:01;;;;;;;15.00;11.57;;;;;;;1.28;80.54;95134.50;5055259;28;20064;-74
2021/12/08 10:26:33;;;;;;;14.77;11.95;;;;;;;1.31;80.87;95137.56;5054611;28;20064;-74
2021/12/08 10:29:03;;;;;;;16.90;12.80;;;;;;;1.37;80.57;95136.09;5054770;28;20060;-74
2021/12/08 10:31:33;;;;;;;18.45;13.98;;;;;;;1.39;80.54;95140.13;5054819;28;20072;-73
2021/12/08 10:34:14;;;;;;;15.70;13.27;;;;;;;1.44;80.31;95153.31;5054205;28;20453;-74
2021/12/08 10:36:46;;;;;;;15.07;11.85;;;;;;;1.48;80.48;95142.69;5053267;28;20048;-74
2021/12/08 10:39:19;;;;;;;16.50;11.63;;;;;;;1.50;80.13;95141.56;5054492;28;20057;-74
2021/12/08 10:41:51;;;;;;;17.23;12.20;;;;;;;1.53;80.53;95146.41;5054513;28;20056;-74
2021/12/08 10:44:46;;;;;;;15.50;12.25;;;;;;;1.57;80.48;95146.84;5054686;28;20076;-74
2021/12/08 10:47:18;;;;;;;17.88;13.85;;;;;;;1.60;80.49;95144.78;5054768;28;20052;-74
2021/12/08 10:55:24;;;;;;;15.95;11.63;;;;;;;1.72;80.17;95139.28;5054384;28;20059;-72
2021/12/08 10:57:55;;;;;;;15.02;11.15;;;;;;;1.77;80.21;95137.03;5054536;28;20470;-72
2021/12/08 11:00:26;;;;;;;12.55;10.20;;;;;;;1.81;80.00;95128.03;5054916;28;20049;-74
2021/12/08 11:02:56;;;;;;;13.75;11.05;;;;;;;1.88;80.31;95113.56;5054814;28;20136;-74
2021/12/08 11:05:38;;;;;;;16.27;11.52;;;;;;;1.93;80.42;95108.72;5054625;28;20055;-74
2021/12/08 11:08:10;;;;;;;12.85;8.32;;;;;;;1.95;79.81;95099.09;5055299;28;20060;-74
2021/12/08 11:10:41;;;;;;;16.58;11.13;;;;;;;1.95;79.83;95088.00;5059704;28;20053;-74
2021/12/08 11:13:10;;;;;;;14.68;10.65;;;;;;;1.93;80.32;95079.66;5069248;28;20068;-73
2021/12/08 11:15:39;;;;;;;13.32;10.85;;;;;;;1.92;80.07;95073.69;5073271;28;20124;-74
2021/12/08 11:18:10;;;;;;;14.95;10.77;;;;;;;1.92;80.16;95080.59;5061376;28;20072;-75
2021/12/08 11:20:45;;;;;;;16.10;11.35;;;;;;;1.97;80.95;95081.72;5055633;28;20049;-76
2021/12/08 11:23:16;;;;;;;16.13;11.77;;;;;;;2.03;80.59;95081.06;5054932;28;20053;-74
2021/12/08 11:25:46;;;;;;;18.20;11.52;;;;;;;2.09;80.46;95076.22;5056426;28;20053;-74
2021/12/08 11:28:29;;;;;;;16.35;12.52;;;;;;;2.14;80.37;95090.16;5055742;28;20049;-74
2021/12/08 11:31:06;;;;;;;14.43;11.63;;;;;;;2.21;80.09;95087.75;5054096;28;20045;-73
2021/12/08 11:33:37;;;;;;;14.77;10.75;;;;;;;2.23;80.01;95086.63;5053644;28;20053;-73
2021/12/08 11:36:13;;;;;;;14.70;10.63;;;;;;;2.21;80.10;95093.69;5053455;28;20634;-74
2021/12/08 11:38:42;;;;;;;13.77;10.68;;;;;;;2.21;80.21;95098.03;5053007;28;20055;-74
2021/12/08 11:41:25;;;;;;;12.38;10.25;;;;;;;2.19;80.04;95093.06;5053173;28;20056;-74
2021/12/08 11:43:54;;;;;;;16.88;11.57;;;;;;;2.19;80.34;95076.81;5053139;28;20049;-73
2021/12/08 11:46:23;;;;;;;15.07;11.48;;;;;;;2.18;80.68;95073.44;5052766;28;20099;-74
2021/12/08 11:48:58;;;;;;;16.42;12.60;;;;;;;2.20;80.44;95063.78;5052829;28;20049;-74
2021/12/08 11:51:27;;;;;;;16.52;11.93;;;;;;;2.25;80.88;95065.84;5053125;28;20049;-73
2021/12/08 11:53:55;;;;;;;18.20;12.00;;;;;;;2.30;80.48;95061.00;5052848;28;20056;-74
2021/12/08 11:56:38;;;;;;;16.30;11.90;;;;;;;2.38;80.69;95058.38;5052445;28;20056;-74
2021/12/08 11:59:09;;;;;;;15.77;11.90;;;;;;;2.47;80.42;95059.97;5053156;28;20510;-74
2021/12/08 12:01:38;;;;;;;15.82;11.43;;;;;;;2.53;80.58;95058.47;5052696;28;20052;-73
2021/12/08 12:04:08;;;;;;;13.02;11.10;;;;;;;2.58;80.61;95063.09;5053291;28;20498;-74
2021/12/08 12:06:37;;;;;;;13.27;9.93;;;;;;;2.62;80.08;95054.91;5052411;28;20056;-74
2021/12/08 12:09:09;;;;;;;17.70;10.98;;;;;;;2.61;79.77;95052.47;5054161;28;20525;-74
2021/12/08 12:11:53;;;;;;;15.48;10.80;;;;;;;2.55;79.84;95059.09;5053798;28;20427;-74
2021/12/08 12:14:21;;;;;;;13.70;10.43;;;;;;;2.54;80.01;95077.31;5053661;28;20048;-73
2021/12/08 12:16:48;;;;;;;16.67;10.90;;;;;;;2.55;80.32;95064.25;5052880;28;20458;-74
2021/12/08 12:19:17;;;;;;;15.27;12.25;;;;;;;2.58;79.98;95055.38;5052751;28;20045;-74
2021/12/08 12:21:58;;;;;;;15.77;11.38;;;;;;;2.58;80.10;95053.63;5052436;28;20526;-74
2021/12/08 12:24:51;;;;;;;16.20;11.70;;;;;;;2.57;80.16;95053.78;5052341;28;20525;-74